createdAt,value
2022-08-05T00:01:28.457Z,92073.84
2022-08-05T00:03:57.089Z,92072.50
2022-08-05T00:06:32.197Z,92064.06
2022-08-05T00:09:01.033Z,92057.13
2022-08-05T00:11:30.625Z,92061.25
2022-08-05T00:14:02.366Z,92064.81
2022-08-05T00:16:52.836Z,92063.34
2022-08-05T00:19:24.970Z,92054.91
2022-08-05T00:22:00.602Z,92053.56
2022-08-05T00:24:30.919Z,92047.22
2022-08-05T00:26:58.838Z,92052.09
2022-08-05T00:29:26.087Z,92052.84
2022-08-05T00:32:13.195Z,92051.41
2022-08-05T00:35:05.436Z,92059.94
2022-08-05T00:37:51.222Z,92052.84
2022-08-05T00:40:26.862Z,92059.19
2022-08-05T00:42:59.889Z,92054.19
2022-08-05T00:45:37.803Z,92057.00
2022-08-05T00:48:18.099Z,92051.41
2022-08-05T00:50:54.268Z,92049.28
2022-08-05T00:54:00.277Z,92058.44
2022-08-05T00:56:10.652Z,92057.00
2022-08-05T00:58:38.908Z,92055.66
2022-08-05T01:01:10.933Z,92052.84
2022-08-05T01:03:39.323Z,92052.84
2022-08-05T01:06:11.205Z,92057.00
2022-08-05T01:08:44.264Z,92056.28
2022-08-05T01:11:33.251Z,92066.75
2022-08-05T01:14:08.438Z,92073.84
2022-08-05T01:16:51.060Z,92067.50
2022-08-05T01:20:02.424Z,92078.00
2022-08-05T01:22:59.724Z,92069.56
2022-08-05T01:25:54.944Z,92064.69
2022-08-05T01:28:46.912Z,92072.38
2022-08-05T01:31:42.571Z,92065.31
2022-08-05T01:34:32.806Z,92075.81
2022-08-05T01:37:04.479Z,92071.66
2022-08-05T01:39:46.236Z,92069.47
2022-08-05T01:42:17.318Z,92069.47
2022-08-05T01:44:45.735Z,92070.94
2022-08-05T01:47:22.362Z,92063.84
2022-08-05T01:50:02.268Z,92068.75
2022-08-05T01:52:31.736Z,92076.56
2022-08-05T01:55:05.652Z,92074.38
2022-08-05T01:58:29.384Z,92075.06
2022-08-05T02:00:33.871Z,92080.69
2022-08-05T02:03:06.768Z,92080.69
2022-08-05T02:05:53.593Z,92079.34
2022-08-05T02:08:29.625Z,92075.81
2022-08-05T02:11:05.166Z,92076.56
2022-08-05T02:13:53.195Z,92075.06
2022-08-05T02:16:52.282Z,92069.47
2022-08-05T02:19:35.060Z,92065.94
2022-08-05T02:22:05.466Z,92068.03
2022-08-05T02:24:38.159Z,92072.28
2022-08-05T02:27:10.171Z,92066.59
2022-08-05T02:29:58.614Z,92066.59
2022-08-05T02:32:31.485Z,92068.03
2022-08-05T02:35:13.718Z,92056.06
2022-08-05T02:37:47.917Z,92051.19
2022-08-05T02:40:22.991Z,92060.97
2022-08-05T02:42:54.038Z,92060.97
2022-08-05T02:45:24.267Z,92055.34
2022-08-05T02:48:07.405Z,92056.06
2022-08-05T02:50:43.852Z,92048.38
2022-08-05T02:53:18.811Z,92055.34
2022-08-05T02:55:54.093Z,92049.75
2022-08-05T02:58:26.753Z,92044.84
2022-08-05T03:00:56.451Z,92044.13
2022-08-05T03:03:23.667Z,92046.94
2022-08-05T03:06:54.424Z,92049.00
2022-08-05T03:08:42.609Z,92037.03
2022-08-05T03:11:56.205Z,92039.84
2022-08-05T03:14:13.255Z,92034.25
2022-08-05T03:16:40.854Z,92037.03
2022-08-05T03:19:16.959Z,92037.03
2022-08-05T03:21:53.961Z,92041.88
2022-08-05T03:24:29.578Z,92031.44
2022-08-05T03:26:57.191Z,92035.56
2022-08-05T03:29:24.263Z,92028.63
2022-08-05T03:32:11.914Z,92034.25
2022-08-05T03:34:41.766Z,92029.97
2022-08-05T03:37:08.728Z,92028.63
2022-08-05T03:39:57.764Z,92024.34
2022-08-05T03:42:27.033Z,92029.97
2022-08-05T03:44:55.616Z,92024.34
2022-08-05T03:47:24.102Z,92018.72
2022-08-05T03:49:52.436Z,92018.72
2022-08-05T03:52:48.778Z,92020.06
2022-08-05T03:56:00.949Z,92020.81
2022-08-05T03:58:17.927Z,92018.00
2022-08-05T04:00:51.428Z,92028.50
2022-08-05T04:03:28.412Z,92022.88
2022-08-05T04:05:57.996Z,92016.53
2022-08-05T04:08:35.301Z,92020.06
2022-08-05T04:11:04.639Z,92022.88
2022-08-05T04:13:50.421Z,92017.25
2022-08-05T04:16:24.046Z,92017.25
2022-08-05T04:18:54.411Z,92010.22
2022-08-05T04:22:08.713Z,92011.66
2022-08-05T04:24:19.751Z,92011.66
2022-08-05T04:26:50.031Z,92016.53
2022-08-05T04:29:16.624Z,92022.88
2022-08-05T04:31:43.163Z,92027.75
2022-08-05T04:34:32.890Z,92027.03
2022-08-05T04:36:56.386Z,92022.88
2022-08-05T04:39:23.085Z,92021.44
2022-08-05T04:41:51.014Z,92025.69
2022-08-05T04:44:21.592Z,92027.03
2022-08-05T04:46:58.913Z,92021.44
2022-08-05T04:49:39.118Z,92024.25
2022-08-05T04:52:12.752Z,92027.03
2022-08-05T04:54:39.364Z,92027.03
2022-08-05T04:57:05.891Z,92035.47
2022-08-05T04:59:38.761Z,92029.84
2022-08-05T05:02:41.321Z,92035.47
2022-08-05T05:05:02.155Z,92035.47
2022-08-05T05:07:32.129Z,92032.66
2022-08-05T05:09:59.619Z,92038.28
2022-08-05T05:12:29.295Z,92031.19
2022-08-05T05:14:55.952Z,92036.81
2022-08-05T05:17:24.598Z,92039.72
2022-08-05T05:19:57.691Z,92034.00
2022-08-05T05:22:26.497Z,92037.44
2022-08-05T05:24:58.880Z,92039.31
2022-08-05T05:27:45.168Z,92039.84
2022-08-05T05:30:31.508Z,92045.97
2022-08-05T05:33:03.917Z,92040.25
2022-08-05T05:35:43.081Z,92045.75
2022-08-05T05:38:13.090Z,92045.53
2022-08-05T05:40:48.392Z,92039.91
2022-08-05T05:43:27.560Z,92047.53
2022-08-05T05:46:05.109Z,92048.22
2022-08-05T05:48:32.356Z,92052.41
2022-08-05T05:51:14.792Z,92055.09
2022-08-05T05:53:45.942Z,92054.34
2022-08-05T05:56:31.827Z,92045.25
2022-08-05T05:59:03.113Z,92043.88
2022-08-05T06:01:36.986Z,92037.53
2022-08-05T06:04:05.751Z,92036.09
2022-08-05T06:06:34.658Z,92036.09
2022-08-05T06:09:03.992Z,92040.97
2022-08-05T06:11:31.517Z,92026.81
2022-08-05T06:13:58.261Z,92035.25
2022-08-05T06:16:32.711Z,92038.78
2022-08-05T06:19:01.802Z,92033.78
2022-08-05T06:21:37.020Z,92032.44
2022-08-05T06:24:12.168Z,92033.91
2022-08-05T06:26:51.835Z,92019.78
2022-08-05T06:29:25.321Z,92017.06
2022-08-05T06:32:25.465Z,92030.47
2022-08-05T06:34:56.643Z,92017.06
2022-08-05T06:37:56.272Z,92012.91
2022-08-05T06:40:20.546Z,92009.38
2022-08-05T06:42:48.662Z,92012.91
2022-08-05T06:45:20.854Z,92014.38
2022-08-05T06:48:36.531Z,92008.78
2022-08-05T06:50:34.537Z,92007.28
2022-08-05T06:53:11.431Z,92014.38
2022-08-05T06:55:38.368Z,92008.78
2022-08-05T06:58:19.831Z,92005.34
2022-08-05T07:00:57.885Z,92003.25
2022-08-05T07:03:27.886Z,91992.00
2022-08-05T07:05:55.259Z,91997.63
2022-08-05T07:08:25.085Z,91995.56
2022-08-05T07:10:53.813Z,92000.66
2022-08-05T07:13:58.457Z,92004.91
2022-08-05T07:17:59.466Z,92000.84
2022-08-05T07:22:28.116Z,92000.97
2022-08-05T07:24:57.815Z,91998.16
2022-08-05T07:27:27.309Z,92002.50
2022-08-05T07:30:27.478Z,91995.56
2022-08-05T07:32:40.523Z,91999.81
2022-08-05T07:36:04.000Z,91987.34
2022-08-05T07:37:55.952Z,91986.81
2022-08-05T07:40:31.377Z,91982.03
2022-08-05T07:42:59.828Z,91984.31
2022-08-05T07:45:57.224Z,91974.03
2022-08-05T07:49:03.350Z,91972.50
2022-08-05T07:51:22.963Z,91968.41
2022-08-05T07:53:51.814Z,91961.56
2022-08-05T07:56:59.970Z,91951.06
2022-08-05T07:59:05.199Z,91950.34
2022-08-05T08:01:35.196Z,91944.63
2022-08-05T08:04:08.034Z,91944.63
2022-08-05T08:06:34.644Z,91939.13
2022-08-05T08:09:01.175Z,91937.75
2022-08-05T08:11:47.863Z,91943.38
2022-08-05T08:14:17.520Z,91944.19
2022-08-05T08:16:51.000Z,91940.66
2022-08-05T08:20:10.418Z,91939.22
2022-08-05T08:22:05.021Z,91930.16
2022-08-05T08:24:41.504Z,91925.25
2022-08-05T08:27:18.241Z,91914.13
2022-08-05T08:30:05.898Z,91910.00
2022-08-05T08:32:34.746Z,91906.44
2022-08-05T08:35:13.576Z,91902.91
2022-08-05T08:37:45.103Z,91906.03
2022-08-05T08:40:12.724Z,91898.94
2022-08-05T08:42:50.543Z,91903.09
2022-08-05T08:45:26.637Z,91901.25
2022-08-05T08:48:10.705Z,91896.09
2022-08-05T08:51:23.113Z,91890.28
2022-08-05T08:53:36.191Z,91888.31
2022-08-05T08:56:06.086Z,91886.84
2022-08-05T08:58:37.480Z,91894.44
2022-08-05T09:01:16.252Z,91885.41
2022-08-05T09:03:45.739Z,91876.97
2022-08-05T09:06:14.694Z,91881.22
2022-08-05T09:08:45.392Z,91879.03
2022-08-05T09:11:13.838Z,91876.97
2022-08-05T09:14:09.461Z,91876.25
2022-08-05T09:16:28.902Z,91863.66
2022-08-05T09:18:55.955Z,91863.66
2022-08-05T09:22:22.911Z,91861.66
2022-08-05T09:24:15.537Z,91854.59
2022-08-05T09:26:43.714Z,91854.72
2022-08-05T09:29:10.903Z,91854.06
2022-08-05T09:32:40.967Z,91851.38
2022-08-05T09:34:53.807Z,91848.00
2022-08-05T09:38:16.341Z,91848.19
2022-08-05T09:40:35.009Z,91832.91
2022-08-05T09:43:03.752Z,91833.59
2022-08-05T09:46:06.124Z,91832.91
2022-08-05T09:48:33.955Z,91828.53
2022-08-05T09:51:14.890Z,91831.34
2022-08-05T09:53:53.705Z,91821.19
2022-08-05T09:56:30.185Z,91822.09
2022-08-05T09:58:58.552Z,91817.19
2022-08-05T10:01:32.502Z,91824.28
2022-08-05T10:04:04.558Z,91821.56
2022-08-05T10:06:37.613Z,91831.44
2022-08-05T10:09:27.255Z,91823.00
2022-08-05T10:11:55.463Z,91820.38
2022-08-05T10:14:23.922Z,91819.13
2022-08-05T10:16:56.296Z,91815.59
2022-08-05T10:19:46.176Z,91823.47
2022-08-05T10:22:25.849Z,91822.75
2022-08-05T10:24:56.560Z,91823.47
2022-08-05T10:27:26.315Z,91820.75
2022-08-05T10:32:48.044Z,91818.56
2022-08-05T10:33:01.202Z,91823.56
2022-08-05T10:35:33.902Z,91826.34
2022-08-05T10:38:08.595Z,91837.59
2022-08-05T10:40:51.895Z,91837.59
2022-08-05T10:43:52.206Z,91850.09
2022-08-05T10:46:23.725Z,91841.88
2022-08-05T10:49:01.558Z,91841.97
2022-08-05T10:51:48.670Z,91840.69
2022-08-05T10:55:02.990Z,91847.78
2022-08-05T10:57:33.653Z,91851.94
2022-08-05T11:00:23.818Z,91856.09
2022-08-05T11:03:25.673Z,91874.41
2022-08-05T11:06:15.229Z,91873.66
2022-08-05T11:09:16.358Z,91884.91
2022-08-05T11:11:53.573Z,91878.59
2022-08-05T11:14:57.358Z,91888.66
2022-08-05T11:17:57.369Z,91877.31
2022-08-05T11:20:34.126Z,91899.78
2022-08-05T11:23:09.057Z,91903.97
2022-08-05T11:26:04.838Z,91912.47
2022-08-05T11:28:30.700Z,91928.63
2022-08-05T11:31:02.423Z,91932.25
2022-08-05T11:34:00.412Z,91942.75
2022-08-05T11:36:52.988Z,91950.44
2022-08-05T11:39:50.030Z,91957.53
2022-08-05T11:42:28.291Z,91954.72
2022-08-05T11:45:05.276Z,91953.25
2022-08-05T11:47:49.639Z,91964.50
2022-08-05T11:50:17.726Z,91971.59
2022-08-05T11:52:48.916Z,91974.41
2022-08-05T11:55:16.848Z,91977.22
2022-08-05T11:58:09.676Z,91982.81
2022-08-05T12:00:38.310Z,91986.97
2022-08-05T12:03:31.541Z,92005.31
2022-08-05T12:06:06.093Z,92011.66
2022-08-05T12:08:57.651Z,92019.97
2022-08-05T12:11:40.298Z,92023.63
2022-08-05T12:14:08.550Z,92009.84
2022-08-05T12:16:45.406Z,92014.03
2022-08-05T12:20:17.088Z,92004.06
2022-08-05T12:22:01.569Z,91988.84
2022-08-05T12:24:28.105Z,92001.88
2022-08-05T12:26:56.791Z,92002.38
2022-08-05T12:29:24.870Z,91989.69
2022-08-05T12:32:02.000Z,91990.41
2022-08-05T12:34:31.788Z,91991.13
2022-08-05T12:37:10.726Z,91991.06
2022-08-05T12:39:39.458Z,91980.44
2022-08-05T12:42:14.983Z,91967.00
2022-08-05T12:44:43.095Z,91968.47
2022-08-05T12:47:12.484Z,91972.72
2022-08-05T12:50:04.403Z,91967.00
2022-08-05T12:52:39.646Z,91969.09
2022-08-05T12:55:32.790Z,91963.56
2022-08-05T12:58:51.532Z,91964.31
2022-08-05T13:02:03.682Z,91960.75
2022-08-05T13:03:41.460Z,91960.16
2022-08-05T13:06:16.188Z,91951.00
2022-08-05T13:08:46.089Z,91946.19
2022-08-05T13:12:01.233Z,91942.03
2022-08-05T13:14:15.329Z,91939.84
2022-08-05T13:16:51.868Z,91935.66
2022-08-05T13:19:21.599Z,91938.47
2022-08-05T13:21:56.052Z,91943.28
2022-08-05T13:24:36.331Z,91942.16
2022-08-05T13:27:11.129Z,91943.50
2022-08-05T13:29:59.545Z,91944.97
2022-08-05T13:32:33.962Z,91937.97
2022-08-05T13:35:03.924Z,91935.25
2022-08-05T13:37:34.449Z,91936.63
2022-08-05T13:40:14.661Z,91935.16
2022-08-05T13:42:43.992Z,91931.72
2022-08-05T13:45:11.151Z,91926.84
2022-08-05T13:48:09.792Z,91920.47
2022-08-05T13:50:27.070Z,91917.66
2022-08-05T13:52:53.907Z,91926.09
2022-08-05T13:55:41.164Z,91925.38
2022-08-05T13:58:07.027Z,91919.78
2022-08-05T14:00:37.619Z,91923.91
2022-08-05T14:03:04.243Z,91913.41
2022-08-05T14:06:04.895Z,91898.53
2022-08-05T14:08:20.809Z,91903.44
2022-08-05T14:11:03.069Z,91908.84
2022-08-05T14:13:41.219Z,91906.34
2022-08-05T14:16:11.738Z,91904.34
2022-08-05T14:18:43.424Z,91901.44
2022-08-05T14:22:09.925Z,91895.72
2022-08-05T14:23:56.617Z,91900.72
2022-08-05T14:26:38.340Z,91904.34
2022-08-05T14:29:16.324Z,91902.81
2022-08-05T14:32:03.296Z,91898.53
2022-08-05T14:34:34.960Z,91900.00
2022-08-05T14:37:03.792Z,91892.91
2022-08-05T14:39:31.172Z,91894.38
2022-08-05T14:42:20.815Z,91894.38
2022-08-05T14:44:48.616Z,91883.16
2022-08-05T14:47:15.188Z,91880.34
2022-08-05T14:49:59.122Z,91880.34
2022-08-05T14:52:51.591Z,91871.91
2022-08-05T14:55:15.614Z,91876.06
2022-08-05T14:57:56.160Z,91874.81
2022-08-05T15:00:28.214Z,91862.13
2022-08-05T15:02:56.508Z,91864.81
2022-08-05T15:05:29.557Z,91870.63
2022-08-05T15:08:06.641Z,91869.19
2022-08-05T15:10:46.203Z,91856.50
2022-08-05T15:13:13.577Z,91869.91
2022-08-05T15:15:54.910Z,91880.44
2022-08-05T15:18:23.355Z,91883.16
2022-08-05T15:20:49.982Z,91876.06
2022-08-05T15:23:18.214Z,91883.16
2022-08-05T15:25:53.218Z,91884.59
2022-08-05T15:28:27.054Z,91897.28
2022-08-05T15:30:54.693Z,91904.34
2022-08-05T15:34:05.812Z,91911.50
2022-08-05T15:36:16.791Z,91918.50
2022-08-05T15:38:44.725Z,91922.66
2022-08-05T15:41:22.672Z,91919.78
2022-08-05T15:43:51.309Z,91921.31
2022-08-05T15:46:19.771Z,91921.41
2022-08-05T15:48:53.083Z,91931.19
2022-08-05T15:52:10.309Z,91923.38
2022-08-05T15:54:15.907Z,91916.44
2022-08-05T15:56:42.566Z,91917.03
2022-08-05T15:59:21.995Z,91916.63
2022-08-05T16:01:52.730Z,91914.06
2022-08-05T16:04:20.658Z,91911.34
2022-08-05T16:06:52.544Z,91921.22
2022-08-05T16:09:19.102Z,91931.00
2022-08-05T16:11:52.738Z,91931.00
2022-08-05T16:14:20.118Z,91928.19
2022-08-05T16:16:47.194Z,91926.09
2022-08-05T16:19:25.617Z,91925.38
2022-08-05T16:22:03.441Z,91928.72
2022-08-05T16:24:39.507Z,91928.72
2022-08-05T16:27:09.129Z,91935.66
2022-08-05T16:29:37.430Z,91943.50
2022-08-05T16:32:09.806Z,91953.25
2022-08-05T16:34:36.713Z,91958.88
2022-08-05T16:38:03.554Z,91972.94
2022-08-05T16:40:05.917Z,91977.81
2022-08-05T16:42:35.099Z,91996.75
2022-08-05T16:45:02.155Z,92000.94
2022-08-05T16:47:55.506Z,92014.97
2022-08-05T16:50:24.017Z,92033.19
2022-08-05T16:52:50.551Z,92026.09
2022-08-05T16:55:17.115Z,92035.91
2022-08-05T16:57:53.190Z,92037.25
2022-08-05T17:00:26.276Z,92039.31
2022-08-05T17:03:15.393Z,92082.19
2022-08-05T17:05:53.354Z,92100.41
2022-08-05T17:08:36.409Z,92103.22
2022-08-05T17:11:08.208Z,92125.59
2022-08-05T17:13:37.241Z,92149.41
2022-08-05T17:16:27.532Z,92171.81
2022-08-05T17:18:51.542Z,92187.41
2022-08-05T17:21:18.170Z,92201.34
2022-08-05T17:24:05.142Z,92205.50
2022-08-05T17:26:32.412Z,92201.13
2022-08-05T17:28:59.700Z,92203.81
2022-08-05T17:31:56.907Z,92211.97
2022-08-05T17:34:18.008Z,92213.69
2022-08-05T17:36:44.698Z,92225.44
2022-08-05T17:39:23.956Z,92232.31
2022-08-05T17:42:17.498Z,92240.34
2022-08-05T17:44:50.327Z,92246.19
2022-08-05T17:47:22.014Z,92244.72
2022-08-05T17:50:04.077Z,92244.72
2022-08-05T17:52:53.326Z,92261.78
2022-08-05T17:55:27.416Z,92274.97
2022-08-05T17:58:03.664Z,92293.31
2022-08-05T18:00:30.396Z,92300.59
2022-08-05T18:02:57.357Z,92314.00
2022-08-05T18:05:27.898Z,92314.53
2022-08-05T18:07:55.317Z,92317.72
2022-08-05T18:10:23.706Z,92312.63
2022-08-05T18:12:50.364Z,92329.47
2022-08-05T18:15:17.279Z,92335.31
2022-08-05T18:17:58.856Z,92339.69
2022-08-05T18:20:31.908Z,92330.72
2022-08-05T18:23:00.693Z,92328.19
2022-08-05T18:25:36.851Z,92334.44
2022-08-05T18:28:09.271Z,92331.63
2022-08-05T18:30:39.061Z,92331.84
2022-08-05T18:33:08.525Z,92337.78
2022-08-05T18:36:00.122Z,92328.94
2022-08-05T18:38:28.135Z,92339.81
2022-08-05T18:41:55.342Z,92335.69
2022-08-05T18:43:43.030Z,92336.91
2022-08-05T18:46:15.999Z,92321.53
2022-08-05T18:48:47.235Z,92318.59
2022-08-05T18:52:06.709Z,92313.72
2022-08-05T18:54:19.270Z,92300.50
2022-08-05T18:56:51.130Z,92294.19
2022-08-05T18:59:43.895Z,92288.69
2022-08-05T19:02:11.442Z,92288.88
2022-08-05T19:05:01.161Z,92296.78
2022-08-05T19:07:45.404Z,92298.03
2022-08-05T19:10:17.431Z,92295.88
2022-08-05T19:12:46.229Z,92301.66
2022-08-05T19:15:57.788Z,92300.72
2022-08-05T19:18:10.484Z,92304.75
2022-08-05T19:20:41.560Z,92304.75
2022-08-05T19:24:03.774Z,92302.66
2022-08-05T19:26:01.992Z,92307.66
2022-08-05T19:28:30.277Z,92313.28
2022-08-05T19:30:56.967Z,92315.47
2022-08-05T19:33:35.749Z,92319.84
2022-08-05T19:36:06.958Z,92322.78
2022-08-05T19:38:37.180Z,92332.75
2022-08-05T19:41:08.924Z,92335.44
2022-08-05T19:44:05.699Z,92349.84
2022-08-05T19:46:30.465Z,92342.50
2022-08-05T19:49:03.628Z,92336.25
2022-08-05T19:52:04.525Z,92346.03
2022-08-05T19:54:29.767Z,92354.31
2022-08-05T19:57:09.762Z,92347.25
2022-08-05T19:59:54.891Z,92347.13
2022-08-05T20:02:30.287Z,92353.31
2022-08-05T20:04:59.638Z,92355.78
2022-08-05T20:07:47.242Z,92351.41
2022-08-05T20:10:16.046Z,92351.41
2022-08-05T20:12:48.249Z,92345.03
2022-08-05T20:15:48.332Z,92344.31
2022-08-05T20:18:10.238Z,92346.03
2022-08-05T20:20:55.845Z,92351.13
2022-08-05T20:23:39.586Z,92345.25
2022-08-05T20:26:16.635Z,92353.75
2022-08-05T20:28:50.846Z,92359.38
2022-08-05T20:31:21.823Z,92355.00
2022-08-05T20:33:50.184Z,92354.56
2022-08-05T20:36:18.099Z,92358.50
2022-08-05T20:38:54.037Z,92355.53
2022-08-05T20:41:26.860Z,92367.03
2022-08-05T20:44:00.063Z,92354.84
2022-08-05T20:46:33.453Z,92353.38
2022-08-05T20:48:59.981Z,92360.69
2022-08-05T20:51:29.595Z,92353.44
2022-08-05T20:54:01.350Z,92359.44
2022-08-05T20:56:31.918Z,92350.69
2022-08-05T20:59:14.205Z,92360.91
2022-08-05T21:01:46.590Z,92356.75
2022-08-05T21:04:13.953Z,92366.06
2022-08-05T21:06:45.331Z,92372.19
2022-08-05T21:09:14.274Z,92380.50
2022-08-05T21:12:07.418Z,92375.59
2022-08-05T21:14:34.760Z,92378.53
2022-08-05T21:17:05.911Z,92375.09
2022-08-05T21:19:47.006Z,92375.84
2022-08-05T21:22:17.670Z,92388.50
2022-08-05T21:24:45.765Z,92383.53
2022-08-05T21:27:15.844Z,92385.81
2022-08-05T21:29:43.299Z,92392.91
2022-08-05T21:32:18.405Z,92397.16
2022-08-05T21:34:46.528Z,92398.66
2022-08-05T21:37:33.105Z,92411.31
2022-08-05T21:40:07.023Z,92407.06
2022-08-05T21:42:44.268Z,92419.00
2022-08-05T21:45:13.606Z,92429.50
2022-08-05T21:47:55.985Z,92420.47
2022-08-05T21:50:24.696Z,92438.03
2022-08-05T21:52:51.250Z,92426.91
2022-08-05T21:55:42.911Z,92429.00
2022-08-05T21:58:06.366Z,92421.94
2022-08-05T22:00:32.957Z,92418.50
2022-08-05T22:02:59.831Z,92414.25
2022-08-05T22:05:27.395Z,92422.66
2022-08-05T22:08:02.073Z,92416.31
2022-08-05T22:10:29.334Z,92418.28
2022-08-05T22:14:04.858Z,92409.88
2022-08-05T22:16:01.294Z,92414.13
2022-08-05T22:18:32.959Z,92421.19
2022-08-05T22:20:59.619Z,92421.94
2022-08-05T22:24:02.509Z,92412.75
2022-08-05T22:26:53.827Z,92415.56
2022-08-05T22:29:26.115Z,92414.25
2022-08-05T22:31:55.184Z,92412.75
2022-08-05T22:34:28.613Z,92412.88
2022-08-05T22:36:56.405Z,92411.44
2022-08-05T22:39:28.498Z,92407.91
2022-08-05T22:42:09.323Z,92404.34
2022-08-05T22:44:36.570Z,92418.38
2022-08-05T22:47:05.863Z,92413.50
2022-08-05T22:50:20.156Z,92409.97
2022-08-05T22:52:30.286Z,92414.88
2022-08-05T22:54:59.407Z,92412.75
2022-08-05T22:57:26.576Z,92409.97
2022-08-05T22:59:54.248Z,92398.72
2022-08-05T23:02:29.532Z,92394.47
2022-08-05T23:05:01.732Z,92397.28
2022-08-05T23:07:32.242Z,92394.59
2022-08-05T23:10:02.175Z,92401.53
2022-08-05T23:12:32.644Z,92404.34
2022-08-05T23:15:04.035Z,92398.72
2022-08-05T23:17:37.912Z,92401.53
2022-08-05T23:20:24.408Z,92390.31
2022-08-05T23:22:55.732Z,92398.72
2022-08-05T23:25:53.008Z,92397.28
2022-08-05T23:28:10.393Z,92398.72
2022-08-05T23:30:40.174Z,92403.03
2022-08-05T23:33:22.367Z,92394.59
2022-08-05T23:35:56.165Z,92384.81
2022-08-05T23:38:24.263Z,92383.38
2022-08-05T23:40:52.870Z,92393.84
2022-08-05T23:43:25.350Z,92392.41
2022-08-05T23:46:05.070Z,92402.91
2022-08-05T23:48:47.375Z,92387.50
2022-08-05T23:51:52.479Z,92380.44
2022-08-05T23:54:30.346Z,92387.50
2022-08-05T23:57:03.880Z,92391.66
